createdAt,value
2023-03-17T00:01:57.521Z,4.40
2023-03-17T00:04:28.622Z,4.03
2023-03-17T00:06:58.046Z,5.10
2023-03-17T00:09:26.415Z,4.43
2023-03-17T00:11:54.743Z,5.18
2023-03-17T00:14:22.909Z,4.47
2023-03-17T00:16:53.668Z,4.10
2023-03-17T00:19:31.138Z,4.15
2023-03-17T00:22:00.233Z,3.95
2023-03-17T00:24:28.938Z,4.47
2023-03-17T00:26:57.370Z,4.10
2023-03-17T00:29:25.607Z,3.90
2023-03-17T00:31:54.775Z,4.15
2023-03-17T00:34:24.402Z,4.20
2023-03-17T00:36:53.920Z,3.33
2023-03-17T00:39:25.395Z,4.07
2023-03-17T00:41:55.910Z,4.20
2023-03-17T00:44:24.345Z,5.03
2023-03-17T00:46:52.735Z,4.60
2023-03-17T00:49:23.517Z,4.57
2023-03-17T00:51:54.385Z,3.35
2023-03-17T00:54:23.402Z,3.80
2023-03-17T00:56:53.379Z,3.33
2023-03-17T00:59:27.474Z,3.45
2023-03-17T01:01:56.485Z,3.40
2023-03-17T01:04:25.477Z,2.88
2023-03-17T01:06:55.614Z,4.45
2023-03-17T01:09:28.084Z,3.55
2023-03-17T01:11:56.669Z,3.38
2023-03-17T01:14:25.821Z,2.80
2023-03-17T01:16:55.369Z,3.30
2023-03-17T01:19:23.980Z,3.40
2023-03-17T01:21:52.508Z,2.80
2023-03-17T01:24:22.207Z,3.45
2023-03-17T01:26:50.942Z,3.40
2023-03-17T01:29:19.041Z,2.90
2023-03-17T01:31:47.793Z,2.83
2023-03-17T01:34:16.119Z,3.10
2023-03-17T01:36:44.289Z,3.00
2023-03-17T01:39:13.048Z,2.92
2023-03-17T01:41:42.727Z,2.72
2023-03-17T01:44:17.059Z,3.17
2023-03-17T01:46:45.969Z,2.97
2023-03-17T01:49:22.432Z,3.10
2023-03-17T01:51:59.297Z,3.75
2023-03-17T01:54:32.751Z,3.25
2023-03-17T01:57:09.423Z,3.00
2023-03-17T01:59:43.676Z,2.95
2023-03-17T02:02:16.271Z,2.80
2023-03-17T02:04:50.610Z,2.75
2023-03-17T02:07:20.560Z,2.95
2023-03-17T02:09:49.075Z,2.75
2023-03-17T02:12:24.827Z,2.80
2023-03-17T02:14:53.666Z,2.50
2023-03-17T02:17:22.985Z,2.95
2023-03-17T02:19:52.394Z,2.20
2023-03-17T02:22:21.949Z,3.13
2023-03-17T02:24:53.229Z,2.72
2023-03-17T02:27:26.253Z,2.78
2023-03-17T02:29:55.205Z,3.10
2023-03-17T02:32:23.294Z,3.22
2023-03-17T02:34:53.047Z,2.95
2023-03-17T02:37:23.008Z,2.50
2023-03-17T02:39:51.101Z,3.00
2023-03-17T02:42:19.241Z,2.15
2023-03-17T02:44:47.471Z,3.03
2023-03-17T02:47:17.329Z,2.92
2023-03-17T02:49:45.758Z,2.67
2023-03-17T02:52:14.075Z,3.20
2023-03-17T02:54:43.802Z,2.95
2023-03-17T02:57:11.936Z,3.10
2023-03-17T02:59:40.035Z,2.95
2023-03-17T03:02:08.158Z,3.17
2023-03-17T03:04:37.599Z,2.42
2023-03-17T03:07:06.041Z,3.10
2023-03-17T03:09:34.610Z,2.40
2023-03-17T03:12:04.112Z,3.03
2023-03-17T03:14:32.610Z,3.63
2023-03-17T03:17:00.635Z,3.33
2023-03-17T03:19:28.924Z,3.08
2023-03-17T03:21:57.192Z,3.38
2023-03-17T03:24:25.496Z,2.65
2023-03-17T03:26:53.532Z,2.72
2023-03-17T03:29:23.022Z,2.70
2023-03-17T03:31:51.276Z,2.47
2023-03-17T03:34:19.958Z,2.65
2023-03-17T03:36:48.147Z,3.10
2023-03-17T03:39:16.462Z,2.83
2023-03-17T03:41:44.626Z,3.03
2023-03-17T03:44:12.678Z,2.63
2023-03-17T03:46:42.417Z,2.50
2023-03-17T03:49:10.667Z,2.47
2023-03-17T03:51:38.843Z,2.65
2023-03-17T03:54:07.232Z,2.60
2023-03-17T03:56:35.509Z,3.22
2023-03-17T03:59:04.066Z,2.20
2023-03-17T04:01:32.341Z,3.80
2023-03-17T04:04:01.838Z,2.88
2023-03-17T04:06:29.903Z,3.20
2023-03-17T04:08:58.514Z,3.47
2023-03-17T04:11:27.654Z,2.90
2023-03-17T04:13:55.647Z,2.63
2023-03-17T04:16:24.052Z,3.00
2023-03-17T04:18:52.402Z,3.40
2023-03-17T04:21:22.248Z,3.40
2023-03-17T04:23:50.831Z,3.10
2023-03-17T04:26:19.060Z,2.80
2023-03-17T04:28:47.891Z,2.88
2023-03-17T04:31:16.474Z,2.75
2023-03-17T04:33:44.684Z,3.00
2023-03-17T04:36:19.329Z,2.95
2023-03-17T04:38:49.124Z,2.40
2023-03-17T04:41:17.263Z,2.95
2023-03-17T04:43:46.347Z,2.40
2023-03-17T04:46:14.734Z,3.00
2023-03-17T04:48:43.330Z,2.63
2023-03-17T04:51:11.950Z,2.55
2023-03-17T04:53:40.075Z,3.05
2023-03-17T04:56:10.023Z,2.60
2023-03-17T04:58:38.799Z,2.55
2023-03-17T05:01:07.591Z,3.00
2023-03-17T05:03:36.066Z,2.25
2023-03-17T05:06:06.092Z,2.38
2023-03-17T05:08:34.487Z,2.67
2023-03-17T05:11:02.577Z,2.78
2023-03-17T05:13:32.064Z,2.10
2023-03-17T05:16:01.476Z,2.85
2023-03-17T05:18:30.109Z,2.17
2023-03-17T05:20:58.308Z,2.80
2023-03-17T05:23:26.524Z,2.92
2023-03-17T05:25:55.037Z,2.85
2023-03-17T05:28:23.659Z,3.22
2023-03-17T05:30:54.290Z,2.35
2023-03-17T05:33:23.127Z,3.35
2023-03-17T05:35:51.533Z,3.42
2023-03-17T05:38:19.752Z,2.45
2023-03-17T05:40:51.259Z,2.90
2023-03-17T05:43:19.645Z,2.30
2023-03-17T05:45:47.952Z,3.15
2023-03-17T05:48:18.072Z,2.60
2023-03-17T05:50:46.140Z,2.80
2023-03-17T05:53:14.204Z,2.67
2023-03-17T05:55:42.926Z,2.65
2023-03-17T05:58:11.134Z,2.70
2023-03-17T06:00:39.439Z,2.60
2023-03-17T06:03:07.849Z,2.10
2023-03-17T06:05:38.145Z,3.00
2023-03-17T06:08:06.505Z,2.40
2023-03-17T06:10:34.726Z,2.65
2023-03-17T06:13:04.775Z,3.05
2023-03-17T06:15:34.226Z,2.97
2023-03-17T06:18:02.715Z,2.97
2023-03-17T06:20:31.288Z,2.33
2023-03-17T06:23:05.003Z,2.50
2023-03-17T06:25:34.338Z,2.83
2023-03-17T06:28:04.111Z,3.30
2023-03-17T06:30:33.988Z,3.80
2023-03-17T06:33:02.426Z,2.78
2023-03-17T06:35:31.407Z,2.85
2023-03-17T06:38:02.288Z,2.80
2023-03-17T06:40:31.230Z,3.63
2023-03-17T06:42:59.649Z,3.22
2023-03-17T06:45:28.678Z,3.05
2023-03-17T06:47:57.091Z,2.70
2023-03-17T06:50:25.386Z,2.90
2023-03-17T06:52:53.592Z,2.72
2023-03-17T06:55:23.189Z,2.92
2023-03-17T06:57:52.423Z,2.70
2023-03-17T07:00:22.456Z,3.33
2023-03-17T07:02:51.320Z,3.85
2023-03-17T07:05:19.426Z,3.38
2023-03-17T07:07:47.975Z,3.15
2023-03-17T07:10:17.513Z,2.72
2023-03-17T07:12:47.056Z,3.20
2023-03-17T07:15:17.483Z,3.53
2023-03-17T07:17:46.993Z,3.28
2023-03-17T07:20:15.286Z,3.20
2023-03-17T07:22:43.469Z,2.65
2023-03-17T07:25:12.168Z,3.10
2023-03-17T07:27:40.395Z,3.22
2023-03-17T07:30:15.703Z,2.97
2023-03-17T07:32:43.851Z,2.50
2023-03-17T07:35:12.133Z,3.38
2023-03-17T07:37:40.709Z,3.25
2023-03-17T07:40:10.436Z,2.60
2023-03-17T07:42:38.741Z,3.35
2023-03-17T07:45:10.187Z,3.50
2023-03-17T07:47:39.427Z,2.85
2023-03-17T07:50:08.175Z,3.10
2023-03-17T07:52:36.458Z,2.70
2023-03-17T07:55:04.826Z,2.78
2023-03-17T07:57:33.412Z,3.10
2023-03-17T08:00:01.699Z,3.00
2023-03-17T08:02:41.193Z,3.05
2023-03-17T08:05:11.570Z,3.00
2023-03-17T08:07:40.483Z,2.90
2023-03-17T08:10:11.720Z,2.53
2023-03-17T08:12:40.192Z,2.88
2023-03-17T08:15:09.419Z,3.22
2023-03-17T08:17:38.051Z,2.47
2023-03-17T08:20:09.735Z,2.10
2023-03-17T08:22:38.214Z,2.30
2023-03-17T08:25:07.097Z,1.65
2023-03-17T08:27:35.404Z,2.85
2023-03-17T08:30:04.314Z,1.95
2023-03-17T08:32:32.581Z,2.08
2023-03-17T08:35:01.384Z,2.40
2023-03-17T08:37:30.776Z,2.10
2023-03-17T08:39:59.355Z,2.35
2023-03-17T08:42:27.567Z,2.08
2023-03-17T08:44:55.728Z,2.20
2023-03-17T08:47:24.914Z,2.28
2023-03-17T08:49:53.522Z,2.00
2023-03-17T08:52:21.673Z,2.10
2023-03-17T08:54:51.893Z,2.00
2023-03-17T08:57:20.041Z,2.20
2023-03-17T08:59:48.688Z,2.40
2023-03-17T09:02:17.095Z,2.17
2023-03-17T09:04:45.337Z,2.00
2023-03-17T09:07:13.774Z,2.40
2023-03-17T09:09:42.441Z,2.63
2023-03-17T09:12:12.406Z,1.88
2023-03-17T09:14:44.117Z,3.05
2023-03-17T09:17:14.490Z,2.30
2023-03-17T09:19:43.679Z,2.50
2023-03-17T09:22:14.622Z,1.88
2023-03-17T09:24:42.947Z,2.08
2023-03-17T09:27:12.688Z,1.65
2023-03-17T09:29:41.297Z,2.10
2023-03-17T09:32:10.014Z,2.30
2023-03-17T09:34:38.585Z,2.40
2023-03-17T09:37:06.849Z,2.47
2023-03-17T09:39:36.055Z,2.35
2023-03-17T09:42:18.585Z,1.80
2023-03-17T09:45:00.940Z,2.22
2023-03-17T09:47:57.618Z,1.98
2023-03-17T09:50:29.804Z,1.55
2023-03-17T09:53:00.905Z,2.10
2023-03-17T09:55:33.141Z,1.95
2023-03-17T09:58:03.501Z,1.70
2023-03-17T10:00:32.671Z,1.63
2023-03-17T10:03:01.592Z,1.63
2023-03-17T10:05:32.375Z,1.40
2023-03-17T10:08:22.730Z,1.30
2023-03-17T10:11:00.115Z,1.40
2023-03-17T10:13:47.057Z,1.45
2023-03-17T10:16:20.962Z,1.85
2023-03-17T10:18:56.685Z,1.52
2023-03-17T10:21:29.690Z,2.15
2023-03-17T10:23:59.365Z,2.60
2023-03-17T10:26:32.936Z,2.15
2023-03-17T10:29:04.307Z,2.35
2023-03-17T10:31:35.629Z,2.35
2023-03-17T10:34:14.634Z,2.67
2023-03-17T10:36:45.742Z,2.45
2023-03-17T10:39:18.747Z,2.40
2023-03-17T10:41:57.390Z,3.03
2023-03-17T10:44:45.270Z,2.30
2023-03-17T10:47:30.227Z,2.42
2023-03-17T10:50:00.883Z,2.80
2023-03-17T10:52:31.159Z,3.22
2023-03-17T10:55:03.759Z,3.00
2023-03-17T10:57:32.011Z,2.50
2023-03-17T11:00:05.130Z,2.47
2023-03-17T11:02:44.301Z,1.70
2023-03-17T11:05:20.812Z,2.60
2023-03-17T11:07:49.035Z,2.22
2023-03-17T11:10:21.571Z,2.40
2023-03-17T11:12:56.002Z,2.70
2023-03-17T11:15:33.781Z,2.50
2023-03-17T11:18:04.183Z,2.80
2023-03-17T11:20:48.503Z,3.05
2023-03-17T11:23:27.323Z,3.47
2023-03-17T11:26:17.699Z,3.85
2023-03-17T11:28:51.768Z,2.75
2023-03-17T11:31:28.631Z,3.55
2023-03-17T11:34:05.181Z,4.10
2023-03-17T11:36:46.126Z,3.28
2023-03-17T11:39:17.611Z,3.83
2023-03-17T11:42:00.593Z,3.83
2023-03-17T11:45:04.865Z,3.58
2023-03-17T11:47:55.260Z,3.30
2023-03-17T11:50:31.730Z,3.35
2023-03-17T11:53:13.180Z,4.20
2023-03-17T11:55:46.261Z,3.58
2023-03-17T11:58:21.035Z,4.07
2023-03-17T12:00:57.064Z,3.47
2023-03-17T12:03:35.174Z,3.67
2023-03-17T12:06:07.131Z,3.72
2023-03-17T12:08:40.703Z,3.00
2023-03-17T12:11:14.780Z,3.97
2023-03-17T12:13:46.670Z,3.38
2023-03-17T12:16:19.722Z,3.78
2023-03-17T12:18:59.177Z,3.70
2023-03-17T12:21:34.283Z,3.88
2023-03-17T12:24:11.600Z,4.38
2023-03-17T12:26:49.348Z,3.60
2023-03-17T12:29:24.132Z,4.10
2023-03-17T12:31:58.172Z,4.10
2023-03-17T12:34:35.481Z,4.35
2023-03-17T12:37:04.027Z,4.40
2023-03-17T12:39:34.476Z,3.78
2023-03-17T12:42:17.038Z,5.00
2023-03-17T12:45:02.137Z,4.55
2023-03-17T12:47:43.556Z,4.60
2023-03-17T12:50:39.311Z,3.47
2023-03-17T12:53:22.408Z,3.92
2023-03-17T12:55:53.513Z,3.45
2023-03-17T12:58:32.375Z,4.10
2023-03-17T13:01:15.977Z,3.33
2023-03-17T13:03:59.039Z,3.35
2023-03-17T13:06:31.701Z,2.85
2023-03-17T13:09:43.899Z,2.75
2023-03-17T13:13:05.768Z,2.40
2023-03-17T13:16:05.666Z,2.47
2023-03-17T13:18:51.394Z,2.90
2023-03-17T13:21:24.936Z,2.40
2023-03-17T13:24:22.466Z,2.40
2023-03-17T13:26:58.210Z,2.45
2023-03-17T13:29:39.479Z,2.72
2023-03-17T13:32:32.929Z,2.28
2023-03-17T13:35:22.117Z,2.50
2023-03-17T13:38:11.510Z,1.85
2023-03-17T13:40:50.899Z,2.13
2023-03-17T13:43:44.078Z,2.53
2023-03-17T13:46:26.704Z,1.48
2023-03-17T13:48:56.802Z,2.20
2023-03-17T13:51:27.403Z,2.10
2023-03-17T13:53:58.133Z,2.60
2023-03-17T13:56:46.713Z,2.00
2023-03-17T13:59:19.086Z,2.30
2023-03-17T14:01:53.690Z,2.15
2023-03-17T14:04:25.735Z,1.70
2023-03-17T14:06:57.451Z,2.22
2023-03-17T14:09:35.869Z,1.98
2023-03-17T14:12:13.223Z,2.10
2023-03-17T14:14:50.670Z,2.20
2023-03-17T14:17:23.750Z,1.98
2023-03-17T14:20:05.465Z,2.20
2023-03-17T14:22:34.138Z,1.92
2023-03-17T14:25:04.044Z,2.40
2023-03-17T14:27:37.645Z,1.85
2023-03-17T14:30:19.116Z,2.60
2023-03-17T14:32:50.004Z,2.55
2023-03-17T14:35:18.789Z,2.40
2023-03-17T14:37:47.144Z,2.25
2023-03-17T14:40:27.986Z,2.10
2023-03-17T14:42:57.720Z,2.95
2023-03-17T14:45:33.025Z,2.28
2023-03-17T14:48:03.027Z,2.55
2023-03-17T14:50:33.512Z,2.08
2023-03-17T14:53:01.900Z,3.03
2023-03-17T14:55:36.964Z,2.60
2023-03-17T14:58:10.985Z,2.30
2023-03-17T15:00:45.975Z,2.28
2023-03-17T15:03:20.912Z,2.00
2023-03-17T15:05:50.553Z,1.98
2023-03-17T15:08:30.601Z,1.80
2023-03-17T15:11:00.413Z,2.05
2023-03-17T15:13:35.416Z,1.98
2023-03-17T15:16:07.432Z,2.40
2023-03-17T15:18:36.130Z,2.00
2023-03-17T15:21:04.718Z,2.55
2023-03-17T15:23:41.549Z,2.03
2023-03-17T15:26:23.400Z,1.92
2023-03-17T15:28:53.395Z,2.20
2023-03-17T15:31:28.496Z,1.92
2023-03-17T15:33:59.096Z,2.72
2023-03-17T15:36:32.782Z,2.40
2023-03-17T15:39:01.885Z,2.80
2023-03-17T15:41:30.450Z,2.40
2023-03-17T15:44:00.261Z,2.17
2023-03-17T15:46:31.235Z,2.70
2023-03-17T15:48:59.661Z,2.42
2023-03-17T15:51:28.253Z,2.78
2023-03-17T15:53:56.326Z,2.88
2023-03-17T15:56:24.744Z,2.60
2023-03-17T15:58:53.086Z,3.00
2023-03-17T16:01:23.774Z,2.97
2023-03-17T16:03:54.269Z,2.63
2023-03-17T16:06:24.490Z,2.70
2023-03-17T16:08:52.873Z,3.30
2023-03-17T16:11:28.220Z,3.78
2023-03-17T16:13:57.415Z,3.38
2023-03-17T16:16:31.702Z,3.00
2023-03-17T16:19:00.455Z,2.88
2023-03-17T16:21:30.731Z,2.17
2023-03-17T16:23:59.343Z,2.30
2023-03-17T16:26:27.748Z,2.20
2023-03-17T16:28:56.832Z,2.83
2023-03-17T16:31:29.418Z,2.53
2023-03-17T16:33:57.973Z,1.90
2023-03-17T16:36:26.896Z,2.85
2023-03-17T16:38:55.219Z,2.35
2023-03-17T16:41:25.581Z,2.70
2023-03-17T16:43:58.615Z,2.60
2023-03-17T16:46:34.568Z,3.10
2023-03-17T16:49:04.215Z,2.35
2023-03-17T16:51:32.360Z,3.30
2023-03-17T16:54:00.643Z,2.47
2023-03-17T16:56:28.954Z,3.30
2023-03-17T16:58:57.226Z,3.55
2023-03-17T17:01:29.748Z,3.30
2023-03-17T17:03:58.084Z,2.70
2023-03-17T17:06:26.581Z,2.78
2023-03-17T17:08:54.702Z,3.03
2023-03-17T17:11:23.016Z,3.40
2023-03-17T17:13:51.710Z,4.32
2023-03-17T17:16:25.070Z,2.95
2023-03-17T17:18:54.749Z,3.05
2023-03-17T17:21:23.264Z,3.20
2023-03-17T17:23:53.147Z,3.30
2023-03-17T17:26:22.248Z,4.07
2023-03-17T17:28:50.481Z,3.35
2023-03-17T17:31:18.927Z,3.35
2023-03-17T17:33:47.103Z,2.65
2023-03-17T17:36:18.496Z,3.28
2023-03-17T17:38:47.042Z,4.95
2023-03-17T17:41:17.069Z,4.97
2023-03-17T17:43:46.443Z,3.33
2023-03-17T17:46:17.970Z,2.75
2023-03-17T17:48:47.044Z,3.03
2023-03-17T17:51:16.950Z,3.33
2023-03-17T17:53:45.590Z,4.22
2023-03-17T17:56:15.919Z,4.40
2023-03-17T17:58:44.550Z,3.15
2023-03-17T18:01:16.762Z,3.22
2023-03-17T18:03:45.079Z,2.97
2023-03-17T18:06:13.994Z,2.63
2023-03-17T18:08:44.335Z,3.40
2023-03-17T18:11:12.936Z,2.78
2023-03-17T18:13:41.244Z,3.45
2023-03-17T18:16:11.907Z,3.00
2023-03-17T18:18:42.434Z,3.75
2023-03-17T18:21:11.034Z,4.07
2023-03-17T18:23:39.901Z,3.78
2023-03-17T18:26:09.749Z,3.72
2023-03-17T18:28:38.108Z,3.50
2023-03-17T18:31:10.608Z,4.43
2023-03-17T18:33:40.460Z,3.83
2023-03-17T18:36:09.819Z,3.50
2023-03-17T18:38:38.970Z,4.00
2023-03-17T18:41:11.136Z,3.45
2023-03-17T18:43:41.046Z,3.40
2023-03-17T18:46:09.335Z,3.92
2023-03-17T18:48:37.708Z,3.88
2023-03-17T18:51:06.890Z,4.45
2023-03-17T18:53:35.421Z,4.20
2023-03-17T18:56:03.836Z,5.22
2023-03-17T18:58:33.483Z,4.50
2023-03-17T19:01:03.121Z,4.80
2023-03-17T19:03:32.464Z,4.53
2023-03-17T19:06:09.780Z,4.55
2023-03-17T19:08:37.982Z,5.30
2023-03-17T19:11:07.479Z,4.75
2023-03-17T19:13:37.885Z,5.43
2023-03-17T19:16:08.010Z,4.93
2023-03-17T19:18:37.476Z,4.30
2023-03-17T19:21:06.156Z,4.18
2023-03-17T19:23:35.917Z,5.30
2023-03-17T19:26:04.696Z,5.60
2023-03-17T19:28:33.142Z,6.57
2023-03-17T19:31:02.775Z,6.30
2023-03-17T19:33:32.482Z,5.75
2023-03-17T19:36:02.869Z,4.78
2023-03-17T19:38:31.448Z,5.20
2023-03-17T19:40:59.778Z,5.82
2023-03-17T19:43:40.007Z,4.53
2023-03-17T19:46:12.524Z,5.00
2023-03-17T19:48:42.003Z,4.78
2023-03-17T19:51:10.697Z,5.35
2023-03-17T19:53:39.166Z,4.75
2023-03-17T19:56:08.601Z,5.50
2023-03-17T19:58:36.795Z,5.15
2023-03-17T20:01:07.025Z,5.15
2023-03-17T20:03:39.319Z,5.63
2023-03-17T20:06:07.593Z,5.97
2023-03-17T20:08:36.319Z,5.53
2023-03-17T20:11:05.815Z,6.10
2023-03-17T20:13:35.111Z,5.40
2023-03-17T20:16:03.686Z,4.88
2023-03-17T20:18:32.208Z,4.30
2023-03-17T20:21:05.835Z,4.70
2023-03-17T20:23:35.544Z,4.78
2023-03-17T20:26:03.705Z,4.20
2023-03-17T20:28:32.555Z,4.50
2023-03-17T20:31:03.010Z,4.03
2023-03-17T20:33:32.119Z,4.10
2023-03-17T20:36:03.402Z,4.00
2023-03-17T20:38:33.286Z,3.60
2023-03-17T20:41:10.338Z,3.42
2023-03-17T20:43:39.238Z,3.03
2023-03-17T20:46:09.445Z,3.03
2023-03-17T20:48:37.940Z,3.50
2023-03-17T20:51:10.103Z,4.40
2023-03-17T20:53:42.886Z,4.25
2023-03-17T20:56:22.806Z,3.67
2023-03-17T20:59:00.527Z,2.88
2023-03-17T21:01:41.279Z,2.63
2023-03-17T21:04:19.887Z,4.55
2023-03-17T21:07:00.388Z,4.50
2023-03-17T21:09:36.888Z,4.03
2023-03-17T21:12:17.150Z,3.20
2023-03-17T21:14:55.903Z,2.78
2023-03-17T21:17:33.365Z,2.92
2023-03-17T21:20:13.057Z,2.70
2023-03-17T21:22:53.411Z,3.42
2023-03-17T21:25:26.932Z,3.42
2023-03-17T21:28:00.697Z,4.45
2023-03-17T21:30:34.695Z,4.70
2023-03-17T21:33:08.860Z,5.57
2023-03-17T21:35:44.056Z,5.65
2023-03-17T21:38:20.696Z,3.65
2023-03-17T21:40:57.708Z,2.90
2023-03-17T21:43:33.012Z,2.90
2023-03-17T21:46:10.717Z,2.60
2023-03-17T21:48:45.280Z,3.55
2023-03-17T21:51:18.200Z,2.30
2023-03-17T21:53:54.106Z,3.05
2023-03-17T21:56:25.453Z,3.25
2023-03-17T21:58:53.768Z,2.47
2023-03-17T22:01:22.788Z,2.53
2023-03-17T22:03:52.339Z,2.60
2023-03-17T22:06:21.372Z,2.60
2023-03-17T22:08:50.918Z,2.60
2023-03-17T22:11:20.689Z,3.15
2023-03-17T22:13:49.182Z,2.63
2023-03-17T22:16:18.668Z,3.03
2023-03-17T22:18:47.616Z,2.65
2023-03-17T22:21:15.976Z,2.78
2023-03-17T22:23:44.665Z,2.50
2023-03-17T22:26:16.073Z,2.60
2023-03-17T22:28:45.659Z,2.97
2023-03-17T22:31:16.637Z,2.60
2023-03-17T22:33:45.073Z,3.30
2023-03-17T22:36:13.246Z,2.33
2023-03-17T22:38:41.882Z,2.40
2023-03-17T22:41:13.737Z,2.30
2023-03-17T22:43:43.775Z,2.80
2023-03-17T22:46:13.821Z,2.85
2023-03-17T22:48:42.471Z,2.70
2023-03-17T22:51:12.707Z,2.58
2023-03-17T22:53:41.678Z,2.95
2023-03-17T22:56:12.121Z,2.80
2023-03-17T22:58:40.980Z,2.28
2023-03-17T23:01:13.630Z,2.50
2023-03-17T23:03:42.345Z,2.25
2023-03-17T23:06:12.608Z,2.80
2023-03-17T23:08:42.795Z,2.35
2023-03-17T23:11:14.140Z,2.30
2023-03-17T23:13:42.680Z,2.00
2023-03-17T23:16:12.652Z,2.50
2023-03-17T23:18:41.331Z,1.90
2023-03-17T23:21:10.491Z,2.03
2023-03-17T23:23:39.629Z,2.25
2023-03-17T23:26:07.760Z,2.70
2023-03-17T23:28:36.207Z,2.20
2023-03-17T23:31:04.666Z,2.50
2023-03-17T23:33:34.127Z,1.90
2023-03-17T23:36:02.259Z,2.33
2023-03-17T23:38:30.678Z,1.98
2023-03-17T23:40:58.948Z,2.30
2023-03-17T23:43:27.432Z,3.10
2023-03-17T23:45:55.601Z,1.90
2023-03-17T23:48:24.101Z,2.20
2023-03-17T23:50:54.417Z,2.22
2023-03-17T23:53:23.632Z,2.67
2023-03-17T23:55:52.873Z,2.33
2023-03-17T23:58:21.717Z,2.75
